createdAt,value
2019-04-05T00:01:52.011Z,13.57
2019-04-05T00:04:22.932Z,13.67
2019-04-05T00:06:53.621Z,13.69
2019-04-05T00:09:24.452Z,13.63
2019-04-05T00:11:55.032Z,13.69
2019-04-05T00:14:25.531Z,13.67
2019-04-05T00:16:56.091Z,13.59
2019-04-05T00:19:26.691Z,13.59
2019-04-05T00:21:57.471Z,13.52
2019-04-05T00:24:28.061Z,13.52
2019-04-05T00:26:58.641Z,13.50
2019-04-05T00:29:29.286Z,13.47
2019-04-05T00:31:59.971Z,13.50
2019-04-05T00:34:30.632Z,13.48
2019-04-05T00:37:01.160Z,13.43
2019-04-05T00:39:31.782Z,13.44
2019-04-05T00:42:02.611Z,13.40
2019-04-05T00:44:33.128Z,13.35
2019-04-05T00:47:03.812Z,13.28
2019-04-05T00:49:34.436Z,13.23
2019-04-05T00:52:05.150Z,13.14
2019-04-05T00:54:35.652Z,13.09
2019-04-05T00:57:06.305Z,13.01
2019-04-05T00:59:36.914Z,12.96
2019-04-05T01:02:07.930Z,12.92
2019-04-05T01:04:38.551Z,12.87
2019-04-05T01:07:09.140Z,12.87
2019-04-05T01:09:39.826Z,12.85
2019-04-05T01:12:10.441Z,12.76
2019-04-05T01:14:41.064Z,12.76
2019-04-05T01:17:24.205Z,12.70
2019-04-05T01:19:47.481Z,12.67
2019-04-05T01:22:19.156Z,12.64
2019-04-05T01:24:49.740Z,12.56
2019-04-05T01:27:21.015Z,12.58
2019-04-05T01:29:51.601Z,12.54
2019-04-05T01:32:22.130Z,12.56
2019-04-05T01:34:52.734Z,12.58
2019-04-05T01:37:23.405Z,12.55
2019-04-05T01:39:54.033Z,12.56
2019-04-05T01:42:24.994Z,12.54
2019-04-05T01:44:56.266Z,12.53
2019-04-05T01:47:26.941Z,12.49
2019-04-05T01:49:57.567Z,12.48
2019-04-05T01:52:28.131Z,12.45
2019-04-05T01:54:58.731Z,12.39
2019-04-05T01:57:29.277Z,12.41
2019-04-05T01:59:59.796Z,12.35
2019-04-05T02:02:30.411Z,12.27
2019-04-05T02:05:01.021Z,12.24
2019-04-05T02:07:31.874Z,12.17
2019-04-05T02:10:02.540Z,12.16
2019-04-05T02:12:33.164Z,12.11
2019-04-05T02:15:03.893Z,12.12
2019-04-05T02:17:35.930Z,12.07
2019-04-05T02:20:07.666Z,12.07
2019-04-05T02:22:38.308Z,12.01
2019-04-05T02:25:09.061Z,12.03
2019-04-05T02:27:39.578Z,12.08
2019-04-05T02:30:10.603Z,12.03
2019-04-05T02:32:41.253Z,12.02
2019-04-05T02:35:12.562Z,12.01
2019-04-05T02:37:43.334Z,12.02
2019-04-05T02:40:16.507Z,12.04
2019-04-05T02:42:49.026Z,12.03
2019-04-05T02:45:20.443Z,12.05
2019-04-05T02:47:55.803Z,12.03
2019-04-05T02:50:29.372Z,12.02
2019-04-05T02:53:04.946Z,12.06
2019-04-05T02:55:37.262Z,12.07
2019-04-05T02:58:10.101Z,11.98
2019-04-05T03:00:41.370Z,11.92
2019-04-05T03:03:12.346Z,11.91
2019-04-05T03:05:43.403Z,11.94
2019-04-05T03:08:14.367Z,11.98
2019-04-05T03:11:10.121Z,11.98
2019-04-05T03:13:53.256Z,12.03
2019-04-05T03:16:40.723Z,12.03
2019-04-05T03:19:14.935Z,12.07
2019-04-05T03:21:52.016Z,11.99
2019-04-05T03:24:29.554Z,12.01
2019-04-05T03:27:07.203Z,11.99
2019-04-05T03:29:41.067Z,12.01
2019-04-05T03:32:12.099Z,11.98
2019-04-05T03:34:42.978Z,12.02
2019-04-05T03:37:14.042Z,12.06
2019-04-05T03:39:45.122Z,12.04
2019-04-05T03:42:16.434Z,12.06
2019-04-05T03:44:47.178Z,12.09
2019-04-05T03:47:17.903Z,12.10
2019-04-05T03:49:48.470Z,12.11
2019-04-05T03:52:19.343Z,12.04
2019-04-05T03:54:50.482Z,12.05
2019-04-05T03:57:21.161Z,12.07
2019-04-05T03:59:51.792Z,11.99
2019-04-05T04:02:23.667Z,11.95
2019-04-05T04:04:54.492Z,11.94
2019-04-05T04:07:25.427Z,11.91
2019-04-05T04:09:56.052Z,11.88
2019-04-05T04:12:27.036Z,11.80
2019-04-05T04:15:14.077Z,11.82
2019-04-05T04:17:47.242Z,11.77
2019-04-05T04:20:45.601Z,11.82
2019-04-05T04:23:16.707Z,11.81
2019-04-05T04:25:48.087Z,11.79
2019-04-05T04:28:19.128Z,11.79
2019-04-05T04:30:49.870Z,11.80
2019-04-05T04:33:21.126Z,11.75
2019-04-05T04:35:53.445Z,11.74
2019-04-05T04:38:24.949Z,11.71
2019-04-05T04:40:56.636Z,11.64
2019-04-05T04:43:28.539Z,11.64
2019-04-05T04:45:59.481Z,11.66
2019-04-05T04:48:31.203Z,11.65
2019-04-05T04:51:02.727Z,11.65
2019-04-05T04:53:34.436Z,11.65
2019-04-05T04:56:05.264Z,11.63
2019-04-05T04:58:36.626Z,11.66
2019-04-05T05:01:07.525Z,11.67
2019-04-05T05:03:38.741Z,11.77
2019-04-05T05:06:09.704Z,11.90
2019-04-05T05:08:40.813Z,12.09
2019-04-05T05:11:14.793Z,12.38
2019-04-05T05:13:44.936Z,12.87
2019-04-05T05:16:15.916Z,13.38
2019-04-05T05:18:46.632Z,13.39
2019-04-05T05:21:17.530Z,13.08
2019-04-05T05:23:48.387Z,12.86
2019-04-05T05:26:19.481Z,12.67
2019-04-05T05:28:50.377Z,12.58
2019-04-05T05:31:21.427Z,12.74
2019-04-05T05:34:07.380Z,12.69
2019-04-05T05:36:39.529Z,12.59
2019-04-05T05:39:10.832Z,12.56
2019-04-05T05:41:41.955Z,12.51
2019-04-05T05:44:12.713Z,12.63
2019-04-05T05:46:43.528Z,12.55
2019-04-05T05:49:20.431Z,12.49
2019-04-05T05:51:51.632Z,12.67
2019-04-05T05:54:22.391Z,12.74
2019-04-05T05:56:53.281Z,12.79
2019-04-05T05:59:24.091Z,12.81
2019-04-05T06:01:54.921Z,13.00
2019-04-05T06:04:25.675Z,13.04
2019-04-05T06:06:56.542Z,13.05
2019-04-05T06:09:32.413Z,12.98
2019-04-05T06:12:08.201Z,12.97
2019-04-05T06:14:42.610Z,13.00
2019-04-05T06:17:13.554Z,13.01
2019-04-05T06:19:44.124Z,13.11
2019-04-05T06:22:14.878Z,13.32
2019-04-05T06:24:45.813Z,13.43
2019-04-05T06:27:16.416Z,13.55
2019-04-05T06:29:47.043Z,13.83
2019-04-05T06:32:17.767Z,14.08
2019-04-05T06:34:48.406Z,14.63
2019-04-05T06:37:19.555Z,14.61
2019-04-05T06:39:50.516Z,14.51
2019-04-05T06:42:21.461Z,14.24
2019-04-05T06:44:52.043Z,13.98
2019-04-05T06:47:22.747Z,13.94
2019-04-05T06:49:53.443Z,14.36
2019-04-05T06:52:24.041Z,14.45
2019-04-05T06:54:54.718Z,14.48
2019-04-05T06:57:25.944Z,14.46
2019-04-05T06:59:56.745Z,14.33
2019-04-05T07:02:27.510Z,14.47
2019-04-05T07:04:58.143Z,14.48
2019-04-05T07:07:29.157Z,14.50
2019-04-05T07:10:00.427Z,14.64
2019-04-05T07:12:31.042Z,15.01
2019-04-05T07:15:01.672Z,15.39
2019-04-05T07:17:32.786Z,15.52
2019-04-05T07:20:03.333Z,16.11
2019-04-05T07:22:39.083Z,16.36
2019-04-05T07:25:07.223Z,16.54
2019-04-05T07:27:37.938Z,16.47
2019-04-05T07:30:08.928Z,16.56
2019-04-05T07:32:41.941Z,16.91
2019-04-05T07:35:12.845Z,17.37
2019-04-05T07:37:43.882Z,17.85
2019-04-05T07:40:14.933Z,17.75
2019-04-05T07:42:45.711Z,17.96
2019-04-05T07:45:16.627Z,17.64
2019-04-05T07:47:47.246Z,17.40
2019-04-05T07:50:18.290Z,17.53
2019-04-05T07:52:49.121Z,17.25
2019-04-05T07:55:19.833Z,17.94
2019-04-05T07:57:50.541Z,18.10
2019-04-05T08:00:59.540Z,18.47
2019-04-05T08:03:30.343Z,18.72
2019-04-05T08:06:01.101Z,20.91
2019-04-05T08:09:08.722Z,20.13
2019-04-05T08:11:42.533Z,20.83
2019-04-05T08:14:17.739Z,20.63
2019-04-05T08:16:46.965Z,20.07
2019-04-05T08:19:17.589Z,19.57
2019-04-05T08:21:48.325Z,19.73
2019-04-05T08:24:19.021Z,20.06
2019-04-05T08:26:50.286Z,20.34
2019-04-05T08:29:21.195Z,20.94
2019-04-05T08:31:51.852Z,20.92
2019-04-05T08:34:22.502Z,21.38
2019-04-05T08:36:53.337Z,20.82
2019-04-05T08:39:24.220Z,20.69
2019-04-05T08:41:55.532Z,21.37
2019-04-05T08:44:26.086Z,21.41
2019-04-05T08:46:56.704Z,22.40
2019-04-05T08:49:27.456Z,22.42
2019-04-05T08:51:57.975Z,22.25
2019-04-05T08:54:32.701Z,23.17
2019-04-05T08:57:01.589Z,23.59
2019-04-05T08:59:32.142Z,23.03
2019-04-05T09:02:02.946Z,22.12
2019-04-05T09:04:34.637Z,23.99
2019-04-05T09:07:05.521Z,23.40
2019-04-05T09:09:36.125Z,23.99
2019-04-05T09:12:06.958Z,25.14
2019-04-05T09:14:37.692Z,23.73
2019-04-05T09:17:08.433Z,23.53
2019-04-05T09:19:38.931Z,24.84
2019-04-05T09:22:09.634Z,25.29
2019-04-05T09:24:40.151Z,25.41
2019-04-05T09:27:10.862Z,25.79
2019-04-05T09:29:42.434Z,26.42
2019-04-05T09:32:13.035Z,27.48
2019-04-05T09:34:43.727Z,26.62
2019-04-05T09:37:14.253Z,25.68
2019-04-05T09:39:44.957Z,26.56
2019-04-05T09:42:15.743Z,26.91
2019-04-05T09:44:46.277Z,24.28
2019-04-05T09:47:16.976Z,24.86
2019-04-05T09:49:47.594Z,25.03
2019-04-05T09:52:18.409Z,26.17
2019-04-05T09:54:49.360Z,26.04
2019-04-05T09:57:20.219Z,25.38
2019-04-05T09:59:50.911Z,26.77
2019-04-05T10:02:21.691Z,27.76
2019-04-05T10:04:52.392Z,27.10
2019-04-05T10:07:23.062Z,27.51
2019-04-05T10:09:53.845Z,27.02
2019-04-05T10:12:24.466Z,26.63
2019-04-05T10:14:55.162Z,26.88
2019-04-05T10:17:25.612Z,27.81
2019-04-05T10:19:56.221Z,29.14
2019-04-05T10:22:26.897Z,28.10
2019-04-05T10:24:57.452Z,26.65
2019-04-05T10:27:28.090Z,27.15
2019-04-05T10:29:58.695Z,27.30
2019-04-05T10:32:29.353Z,27.61
2019-04-05T10:34:59.930Z,26.68
2019-04-05T10:37:30.726Z,26.20
2019-04-05T10:40:01.568Z,27.08
2019-04-05T10:42:36.883Z,26.43
2019-04-05T10:45:11.866Z,26.85
2019-04-05T10:47:42.505Z,27.93
2019-04-05T10:50:14.826Z,27.36
2019-04-05T10:52:45.436Z,27.03
2019-04-05T10:55:17.109Z,25.61
2019-04-05T10:57:47.708Z,25.65
2019-04-05T11:00:19.850Z,27.05
2019-04-05T11:02:50.538Z,25.66
2019-04-05T11:05:21.181Z,25.42
2019-04-05T11:07:51.998Z,24.64
2019-04-05T11:10:22.794Z,24.26
2019-04-05T11:12:53.414Z,23.15
2019-04-05T11:15:24.110Z,22.70
2019-04-05T11:17:54.873Z,23.07
2019-04-05T11:20:25.936Z,22.91
2019-04-05T11:22:56.716Z,22.33
2019-04-05T11:25:27.420Z,22.24
2019-04-05T11:27:58.511Z,22.55
2019-04-05T11:30:43.543Z,22.95
2019-04-05T11:33:14.809Z,22.62
2019-04-05T11:35:45.915Z,22.83
2019-04-05T11:38:17.568Z,22.80
2019-04-05T11:40:48.735Z,21.67
2019-04-05T11:43:20.500Z,22.20
2019-04-05T11:45:52.041Z,22.15
2019-04-05T11:48:22.833Z,22.23
2019-04-05T11:50:53.694Z,22.55
2019-04-05T11:53:24.482Z,22.31
2019-04-05T11:55:55.436Z,22.45
2019-04-05T11:58:26.015Z,22.48
2019-04-05T12:01:02.369Z,22.36
2019-04-05T12:03:33.151Z,22.24
2019-04-05T12:06:04.099Z,21.94
2019-04-05T12:08:34.862Z,21.92
2019-04-05T12:11:05.666Z,22.14
2019-04-05T12:13:36.292Z,22.29
2019-04-05T12:16:10.288Z,22.45
2019-04-05T12:18:39.355Z,21.99
2019-04-05T12:21:09.958Z,22.32
2019-04-05T12:23:40.567Z,22.36
2019-04-05T12:26:11.290Z,22.13
2019-04-05T12:28:41.865Z,22.37
2019-04-05T12:31:12.500Z,22.65
2019-04-05T12:33:42.990Z,22.02
2019-04-05T12:36:13.931Z,21.90
2019-04-05T12:38:44.774Z,22.05
2019-04-05T12:41:18.129Z,22.52
2019-04-05T12:43:50.691Z,22.29
2019-04-05T12:46:20.065Z,22.13
2019-04-05T12:48:50.733Z,22.13
2019-04-05T12:51:21.373Z,22.27
2019-04-05T12:53:52.041Z,21.97
2019-04-05T12:56:24.381Z,21.95
2019-04-05T12:58:55.976Z,22.00
2019-04-05T13:01:27.335Z,22.09
2019-04-05T13:03:58.805Z,22.33
2019-04-05T13:06:29.580Z,21.86
2019-04-05T13:09:00.161Z,22.04
2019-04-05T13:11:30.865Z,21.93
2019-04-05T13:14:01.513Z,22.12
2019-04-05T13:16:32.033Z,22.29
2019-04-05T13:19:02.821Z,22.21
2019-04-05T13:21:33.454Z,21.74
2019-04-05T13:24:06.878Z,21.87
2019-04-05T13:26:37.048Z,21.82
2019-04-05T13:29:07.890Z,21.83
2019-04-05T13:31:38.504Z,21.55
2019-04-05T13:34:09.302Z,21.35
2019-04-05T13:36:39.866Z,21.69
2019-04-05T13:39:11.052Z,21.69
2019-04-05T13:41:41.632Z,21.50
2019-04-05T13:44:12.272Z,21.60
2019-04-05T13:46:43.106Z,21.84
2019-04-05T13:49:13.961Z,21.98
2019-04-05T13:51:44.626Z,22.20
2019-04-05T13:54:15.296Z,22.03
2019-04-05T13:56:49.086Z,21.93
2019-04-05T13:59:19.771Z,21.84
2019-04-05T14:01:51.522Z,21.89
2019-04-05T14:04:22.313Z,21.83
2019-04-05T14:06:54.201Z,21.78
2019-04-05T14:09:25.191Z,21.87
2019-04-05T14:11:55.990Z,21.87
2019-04-05T14:14:28.380Z,22.20
2019-04-05T14:16:59.126Z,22.37
2019-04-05T14:19:30.127Z,22.32
2019-04-05T14:22:08.436Z,22.23
2019-04-05T14:24:33.367Z,21.82
2019-04-05T14:27:04.193Z,21.79
2019-04-05T14:29:35.209Z,21.56
2019-04-05T14:32:19.862Z,21.39
2019-04-05T14:34:38.516Z,21.41
2019-04-05T14:37:09.675Z,21.30
2019-04-05T14:39:40.221Z,21.05
2019-04-05T14:42:14.423Z,20.69
2019-04-05T14:44:43.421Z,20.53
2019-04-05T14:47:14.135Z,20.60
2019-04-05T14:49:45.041Z,20.74
2019-04-05T14:52:16.027Z,20.70
2019-04-05T14:54:46.771Z,20.59
2019-04-05T14:57:17.516Z,20.37
2019-04-05T14:59:48.409Z,20.05
2019-04-05T15:02:19.152Z,19.88
2019-04-05T15:04:49.857Z,19.79
2019-04-05T15:07:20.852Z,19.72
2019-04-05T15:09:54.660Z,19.70
2019-04-05T15:12:28.893Z,19.79
2019-04-05T15:14:57.130Z,19.85
2019-04-05T15:17:27.821Z,20.04
2019-04-05T15:19:58.496Z,20.00
2019-04-05T15:22:29.266Z,20.09
2019-04-05T15:25:01.022Z,20.05
2019-04-05T15:27:32.111Z,20.04
2019-04-05T15:30:02.920Z,20.11
2019-04-05T15:32:33.931Z,20.09
2019-04-05T15:35:05.212Z,20.03
2019-04-05T15:37:37.454Z,19.83
2019-04-05T15:40:09.346Z,19.64
2019-04-05T15:42:40.030Z,19.51
2019-04-05T15:45:15.728Z,19.25
2019-04-05T15:47:43.961Z,19.23
2019-04-05T15:50:14.890Z,19.07
2019-04-05T15:52:45.841Z,18.99
2019-04-05T15:55:16.622Z,18.92
2019-04-05T15:57:47.420Z,18.84
2019-04-05T16:00:25.840Z,18.75
2019-04-05T16:02:55.626Z,18.65
2019-04-05T16:05:26.371Z,18.52
2019-04-05T16:07:57.033Z,18.46
2019-04-05T16:10:27.759Z,18.42
2019-04-05T16:12:58.690Z,18.39
2019-04-05T16:15:29.545Z,18.40
2019-04-05T16:18:00.321Z,18.43
2019-04-05T16:20:31.041Z,18.49
2019-04-05T16:23:01.851Z,18.52
2019-04-05T16:25:32.522Z,18.56
2019-04-05T16:28:03.216Z,18.62
2019-04-05T16:30:33.890Z,18.55
2019-04-05T16:33:04.557Z,18.52
2019-04-05T16:35:35.360Z,18.51
2019-04-05T16:38:06.147Z,18.46
2019-04-05T16:40:37.447Z,18.41
2019-04-05T16:43:08.716Z,18.35
2019-04-05T16:45:39.436Z,18.33
2019-04-05T16:48:10.049Z,18.26
2019-04-05T16:50:42.296Z,18.23
2019-04-05T16:53:13.272Z,18.14
2019-04-05T16:55:44.296Z,18.11
2019-04-05T16:58:17.846Z,18.12
2019-04-05T17:00:48.818Z,18.09
2019-04-05T17:03:19.545Z,18.07
2019-04-05T17:05:52.353Z,18.00
2019-04-05T17:08:23.171Z,18.01
2019-04-05T17:10:53.808Z,17.96
2019-04-05T17:13:24.663Z,17.88
2019-04-05T17:15:55.334Z,17.85
2019-04-05T17:18:26.748Z,17.76
2019-04-05T17:20:58.251Z,17.69
2019-04-05T17:23:29.299Z,17.65
2019-04-05T17:26:01.000Z,17.15
2019-04-05T17:28:31.697Z,16.42
2019-04-05T17:31:10.948Z,16.39
2019-04-05T17:33:42.177Z,16.33
2019-04-05T17:36:18.563Z,16.34
2019-04-05T17:38:49.935Z,16.39
2019-04-05T17:41:23.360Z,16.52
2019-04-05T17:43:55.460Z,16.57
2019-04-05T17:46:26.152Z,16.57
2019-04-05T17:48:56.846Z,16.54
2019-04-05T17:51:27.755Z,16.50
2019-04-05T17:53:58.400Z,16.47
2019-04-05T17:56:29.402Z,16.57
2019-04-05T17:59:00.248Z,16.58
2019-04-05T18:01:32.036Z,16.61
2019-04-05T18:04:02.800Z,16.70
2019-04-05T18:06:34.409Z,16.75
2019-04-05T18:09:06.206Z,16.84
2019-04-05T18:11:37.146Z,16.91
2019-04-05T18:14:08.042Z,16.96
2019-04-05T18:16:42.031Z,17.04
2019-04-05T18:19:12.816Z,17.15
2019-04-05T18:21:43.811Z,17.43
2019-04-05T18:24:17.911Z,17.64
2019-04-05T18:26:48.651Z,17.65
2019-04-05T18:29:19.596Z,17.82
2019-04-05T18:31:50.246Z,17.83
2019-04-05T18:34:22.367Z,17.90
2019-04-05T18:36:53.708Z,17.92
2019-04-05T18:39:26.521Z,17.84
2019-04-05T18:41:58.505Z,17.81
2019-04-05T18:44:31.210Z,17.83
2019-04-05T18:47:07.699Z,17.76
2019-04-05T18:49:41.211Z,17.78
2019-04-05T18:52:19.756Z,17.78
2019-04-05T18:54:50.386Z,17.84
2019-04-05T18:57:25.354Z,17.84
2019-04-05T18:59:57.046Z,17.84
2019-04-05T19:02:29.956Z,17.88
2019-04-05T19:05:04.203Z,17.85
2019-04-05T19:07:38.286Z,17.95
2019-04-05T19:10:09.334Z,17.83
2019-04-05T19:12:40.071Z,17.74
2019-04-05T19:15:13.186Z,17.69
2019-04-05T19:17:43.967Z,17.67
2019-04-05T19:20:15.181Z,17.72
2019-04-05T19:22:50.058Z,17.80
2019-04-05T19:25:21.055Z,17.64
2019-04-05T19:27:55.148Z,17.50
2019-04-05T19:48:50.326Z,16.72
2019-04-05T19:51:21.185Z,16.71
2019-04-05T19:54:01.361Z,16.68
2019-04-05T19:56:31.002Z,16.53
2019-04-05T19:59:03.716Z,16.48
2019-04-05T20:01:36.989Z,16.29
2019-04-05T20:04:10.831Z,16.21
2019-04-05T20:06:45.163Z,16.14
2019-04-05T20:09:19.117Z,16.12
2019-04-05T20:11:51.116Z,16.03
2019-04-05T20:14:22.082Z,15.99
2019-04-05T20:16:56.999Z,15.76
2019-04-05T20:19:34.341Z,15.58
2019-04-05T20:22:05.134Z,15.35
2019-04-05T20:24:39.455Z,15.37
2019-04-05T20:27:14.758Z,15.23
2019-04-05T20:29:46.674Z,15.17
2019-04-05T20:32:17.371Z,15.28
2019-04-05T20:34:48.015Z,15.14
2019-04-05T20:37:18.687Z,15.22
2019-04-05T20:39:49.199Z,15.26
2019-04-05T20:42:19.860Z,15.38
2019-04-05T20:44:50.636Z,15.35
2019-04-05T20:47:21.332Z,15.23
2019-04-05T20:49:51.961Z,15.15
2019-04-05T20:52:22.570Z,15.02
2019-04-05T20:54:53.127Z,14.95
2019-04-05T20:57:28.068Z,14.87
2019-04-05T20:59:58.699Z,14.82
2019-04-05T21:02:29.283Z,14.73
2019-04-05T21:04:59.998Z,14.82
2019-04-05T21:07:31.012Z,14.87
2019-04-05T21:10:01.793Z,14.66
2019-04-05T21:12:32.414Z,14.48
2019-04-05T21:15:03.041Z,14.36
2019-04-05T21:17:33.662Z,14.32
2019-04-05T21:20:04.342Z,14.24
2019-04-05T21:22:35.137Z,14.28
2019-04-05T21:25:06.634Z,14.41
2019-04-05T21:27:39.150Z,14.46
2019-04-05T21:30:10.454Z,14.42
2019-04-05T21:32:41.130Z,14.36
2019-04-05T21:35:11.766Z,14.28
2019-04-05T21:37:42.579Z,14.14
2019-04-05T21:40:13.415Z,14.02
2019-04-05T21:42:44.099Z,13.84
2019-04-05T21:45:15.157Z,13.85
2019-04-05T21:47:45.704Z,13.73
2019-04-05T21:50:16.290Z,13.74
2019-04-05T21:52:47.096Z,13.83
2019-04-05T21:55:17.861Z,14.03
2019-04-05T21:57:48.455Z,14.04
2019-04-05T22:00:26.771Z,13.98
2019-04-05T22:02:57.460Z,13.92
2019-04-05T22:05:28.133Z,13.94
2019-04-05T22:07:58.762Z,13.94
2019-04-05T22:10:29.465Z,13.93
2019-04-05T22:13:00.075Z,13.95
2019-04-05T22:15:30.887Z,13.97
2019-04-05T22:18:01.926Z,13.88
2019-04-05T22:20:32.547Z,13.83
2019-04-05T22:23:03.336Z,13.86
2019-04-05T22:25:34.082Z,13.80
2019-04-05T22:28:04.840Z,13.82
2019-04-05T22:30:37.033Z,13.90
2019-04-05T22:33:07.793Z,13.84
2019-04-05T22:35:38.571Z,13.86
2019-04-05T22:38:09.135Z,13.88
2019-04-05T22:40:39.861Z,13.92
2019-04-05T22:43:10.456Z,13.88
2019-04-05T22:45:41.090Z,13.94
2019-04-05T22:48:11.815Z,13.80
2019-04-05T22:50:42.441Z,13.85
2019-04-05T22:53:13.094Z,13.87
2019-04-05T22:55:43.682Z,13.87
2019-04-05T22:58:14.321Z,13.78
2019-04-05T23:00:44.877Z,13.67
2019-04-05T23:03:15.612Z,13.70
2019-04-05T23:05:46.281Z,13.58
2019-04-05T23:08:17.017Z,13.50
2019-04-05T23:10:47.761Z,13.42
2019-04-05T23:13:18.362Z,13.40
2019-04-05T23:15:48.991Z,13.36
2019-04-05T23:18:19.800Z,13.23
2019-04-05T23:20:50.426Z,13.25
2019-04-05T23:23:21.103Z,13.18
2019-04-05T23:25:52.924Z,13.14
2019-04-05T23:28:23.475Z,13.14
2019-04-05T23:30:54.204Z,13.10
2019-04-05T23:33:24.830Z,13.11
2019-04-05T23:35:55.564Z,13.00
2019-04-05T23:38:26.329Z,13.01
2019-04-05T23:40:57.111Z,13.03
2019-04-05T23:43:27.831Z,13.05
2019-04-05T23:45:58.293Z,13.00
2019-04-05T23:48:28.926Z,12.93
2019-04-05T23:50:59.502Z,12.87
2019-04-05T23:53:30.042Z,12.89
2019-04-05T23:56:00.556Z,12.79
2019-04-05T23:58:37.551Z,12.75
